sensor_id;sensor_type;location;lat;lon;timestamp;pressure;altitude;pressure_sealevel;temperature;humidity
4576;BME280;2300;51.874;8.430;2024-01-07T00:02:06;100762.72;;;0.80;99.79
4576;BME280;2300;51.874;8.430;2024-01-07T00:04:32;100754.44;;;0.82;99.65
4576;BME280;2300;51.874;8.430;2024-01-07T00:06:59;100768.28;;;0.71;99.50
4576;BME280;2300;51.874;8.430;2024-01-07T00:09:27;100764.03;;;0.68;99.68
4576;BME280;2300;51.874;8.430;2024-01-07T00:11:54;100775.19;;;0.73;99.91
4576;BME280;2300;51.874;8.430;2024-01-07T00:14:20;100770.13;;;0.78;99.53
4576;BME280;2300;51.874;8.430;2024-01-07T00:16:47;100775.38;;;0.72;98.58
4576;BME280;2300;51.874;8.430;2024-01-07T00:19:13;100773.84;;;0.69;98.43
4576;BME280;2300;51.874;8.430;2024-01-07T00:21:40;100781.75;;;0.62;98.52
4576;BME280;2300;51.874;8.430;2024-01-07T00:24:07;100782.94;;;0.68;98.71
4576;BME280;2300;51.874;8.430;2024-01-07T00:26:35;100786.34;;;0.70;98.32
4576;BME280;2300;51.874;8.430;2024-01-07T00:29:01;100789.72;;;0.64;98.52
4576;BME280;2300;51.874;8.430;2024-01-07T00:31:28;100800.56;;;0.72;98.47
4576;BME280;2300;51.874;8.430;2024-01-07T00:33:54;100801.22;;;0.74;98.27
4576;BME280;2300;51.874;8.430;2024-01-07T00:36:21;100797.66;;;0.66;98.44
4576;BME280;2300;51.874;8.430;2024-01-07T00:38:47;100805.47;;;0.77;98.43
4576;BME280;2300;51.874;8.430;2024-01-07T00:41:14;100801.22;;;0.74;98.00
4576;BME280;2300;51.874;8.430;2024-01-07T00:43:42;100808.81;;;0.79;98.02
4576;BME280;2300;51.874;8.430;2024-01-07T00:46:08;100807.97;;;0.78;98.10
4576;BME280;2300;51.874;8.430;2024-01-07T00:48:35;100811.03;;;0.67;97.56
4576;BME280;2300;51.874;8.430;2024-01-07T00:51:02;100808.97;;;0.69;97.87
4576;BME280;2300;51.874;8.430;2024-01-07T00:53:28;100809.66;;;0.71;98.27
4576;BME280;2300;51.874;8.430;2024-01-07T00:55:55;100819.78;;;0.69;98.31
4576;BME280;2300;51.874;8.430;2024-01-07T00:58:21;100811.81;;;0.51;97.88
4576;BME280;2300;51.874;8.430;2024-01-07T01:00:49;100793.91;;;0.50;98.02
4576;BME280;2300;51.874;8.430;2024-01-07T01:03:19;100817.44;;;0.66;98.31
4576;BME280;2300;51.874;8.430;2024-01-07T01:05:46;100819.78;;;0.61;97.93
4576;BME280;2300;51.874;8.430;2024-01-07T01:08:12;100825.69;;;0.64;97.63
4576;BME280;2300;51.874;8.430;2024-01-07T01:10:39;100828.91;;;0.68;98.25
4576;BME280;2300;51.874;8.430;2024-01-07T01:13:05;100831.25;;;0.63;97.81
4576;BME280;2300;51.874;8.430;2024-01-07T01:15:32;100832.94;;;0.56;97.96
4576;BME280;2300;51.874;8.430;2024-01-07T01:18:00;100837.00;;;0.60;97.81
4576;BME280;2300;51.874;8.430;2024-01-07T01:20:26;100840.56;;;0.69;98.03
4576;BME280;2300;51.874;8.430;2024-01-07T01:22:53;100840.22;;;0.55;97.77
4576;BME280;2300;51.874;8.430;2024-01-07T01:25:20;100848.88;;;0.67;97.99
4576;BME280;2300;51.874;8.430;2024-01-07T01:27:47;100853.56;;;0.65;97.85
4576;BME280;2300;51.874;8.430;2024-01-07T01:30:13;100851.22;;;0.62;97.58
4576;BME280;2300;51.874;8.430;2024-01-07T01:32:40;100857.09;;;0.57;97.41
4576;BME280;2300;51.874;8.430;2024-01-07T01:35:09;100857.28;;;0.56;97.41
4576;BME280;2300;51.874;8.430;2024-01-07T01:37:35;100857.28;;;0.56;96.96
4576;BME280;2300;51.874;8.430;2024-01-07T01:40:03;100863.69;;;0.63;96.99
4576;BME280;2300;51.874;8.430;2024-01-07T01:42:30;100865.78;;;0.77;97.22
4576;BME280;2300;51.874;8.430;2024-01-07T01:44:56;100876.56;;;0.69;97.08
4576;BME280;2300;51.874;8.430;2024-01-07T01:47:26;100868.94;;;0.56;96.47
4576;BME280;2300;51.874;8.430;2024-01-07T01:49:53;100872.50;;;0.57;96.70
4576;BME280;2300;51.874;8.430;2024-01-07T01:52:21;100871.44;;;0.58;96.73
4576;BME280;2300;51.874;8.430;2024-01-07T01:54:48;100893.28;;;0.64;96.84
4576;BME280;2300;51.874;8.430;2024-01-07T01:57:17;100883.16;;;0.67;96.64
4576;BME280;2300;51.874;8.430;2024-01-07T01:59:45;100889.06;;;0.62;96.56
4576;BME280;2300;51.874;8.430;2024-01-07T02:02:13;100886.47;;;0.52;96.23
4576;BME280;2300;51.874;8.430;2024-01-07T02:04:40;100898.78;;;0.47;96.67
4576;BME280;2300;51.874;8.430;2024-01-07T02:07:06;100899.44;;;0.41;96.72
4576;BME280;2300;51.874;8.430;2024-01-07T02:09:34;100897.22;;;0.36;96.49
4576;BME280;2300;51.874;8.430;2024-01-07T02:12:01;100901.81;;;0.44;96.88
4576;BME280;2300;51.874;8.430;2024-01-07T02:14:28;100902.69;;;0.52;96.26
4576;BME280;2300;51.874;8.430;2024-01-07T02:16:55;100900.94;;;0.43;96.47
4576;BME280;2300;51.874;8.430;2024-01-07T02:19:21;100878.75;;;0.24;96.07
4576;BME280;2300;51.874;8.430;2024-01-07T02:21:50;100902.66;;;0.44;96.19
4576;BME280;2300;51.874;8.430;2024-01-07T02:24:18;100910.28;;;0.49;95.88
4576;BME280;2300;51.874;8.430;2024-01-07T02:26:45;100910.25;;;0.41;96.42
4576;BME280;2300;51.874;8.430;2024-01-07T02:29:11;100908.75;;;0.46;95.90
4576;BME280;2300;51.874;8.430;2024-01-07T02:31:38;100918.22;;;0.50;96.11
4576;BME280;2300;51.874;8.430;2024-01-07T02:34:04;100920.44;;;0.55;95.99
4576;BME280;2300;51.874;8.430;2024-01-07T02:36:31;100922.44;;;0.53;95.60
4576;BME280;2300;51.874;8.430;2024-01-07T02:38:58;100925.63;;;0.48;95.30
4576;BME280;2300;51.874;8.430;2024-01-07T02:41:25;100922.78;;;0.50;94.98
4576;BME280;2300;51.874;8.430;2024-01-07T02:43:52;100929.69;;;0.52;95.16
4576;BME280;2300;51.874;8.430;2024-01-07T02:46:19;100925.47;;;0.50;94.92
4576;BME280;2300;51.874;8.430;2024-01-07T02:48:46;100925.75;;;0.39;95.35
4576;BME280;2300;51.874;8.430;2024-01-07T02:51:12;100926.81;;;0.46;95.06
4576;BME280;2300;51.874;8.430;2024-01-07T02:53:39;100931.38;;;0.45;94.85
4576;BME280;2300;51.874;8.430;2024-01-07T02:56:05;100927.53;;;0.56;95.10
4576;BME280;2300;51.874;8.430;2024-01-07T02:58:35;100940.38;;;0.54;94.66
4576;BME280;2300;51.874;8.430;2024-01-07T03:01:01;100952.34;;;0.51;94.41
4576;BME280;2300;51.874;8.430;2024-01-07T03:03:28;100947.09;;;0.50;94.55
4576;BME280;2300;51.874;8.430;2024-01-07T03:05:55;100942.34;;;0.44;94.27
4576;BME280;2300;51.874;8.430;2024-01-07T03:08:21;100951.81;;;0.48;94.31
4576;BME280;2300;51.874;8.430;2024-01-07T03:10:48;100950.16;;;0.47;94.13
4576;BME280;2300;51.874;8.430;2024-01-07T03:13:15;100945.75;;;0.46;94.09
4576;BME280;2300;51.874;8.430;2024-01-07T03:15:42;100949.47;;;0.53;93.92
4576;BME280;2300;51.874;8.430;2024-01-07T03:18:09;100949.09;;;0.48;93.57
4576;BME280;2300;51.874;8.430;2024-01-07T03:20:35;100947.97;;;0.50;93.79
4576;BME280;2300;51.874;8.430;2024-01-07T03:23:02;100943.69;;;0.40;93.15
4576;BME280;2300;51.874;8.430;2024-01-07T03:25:29;100915.19;;;0.19;93.31
4576;BME280;2300;51.874;8.430;2024-01-07T03:27:55;100960.75;;;0.40;92.87
4576;BME280;2300;51.874;8.430;2024-01-07T03:30:22;100964.22;;;0.33;93.06
4576;BME280;2300;51.874;8.430;2024-01-07T03:32:50;100962.22;;;0.35;93.16
4576;BME280;2300;51.874;8.430;2024-01-07T03:35:16;100970.69;;;0.40;92.81
4576;BME280;2300;51.874;8.430;2024-01-07T03:37:43;100974.88;;;0.34;92.35
4576;BME280;2300;51.874;8.430;2024-01-07T03:40:10;100978.09;;;0.38;91.70
4576;BME280;2300;51.874;8.430;2024-01-07T03:42:37;100976.75;;;0.34;91.75
4576;BME280;2300;51.874;8.430;2024-01-07T03:45:04;100977.91;;;0.31;91.33
4576;BME280;2300;51.874;8.430;2024-01-07T03:47:31;100980.44;;;0.33;91.14
4576;BME280;2300;51.874;8.430;2024-01-07T03:49:59;100985.84;;;0.33;91.33
4576;BME280;2300;51.874;8.430;2024-01-07T03:52:25;100985.00;;;0.32;91.63
4576;BME280;2300;51.874;8.430;2024-01-07T03:54:53;100984.06;;;0.41;91.80
4576;BME280;2300;51.874;8.430;2024-01-07T03:57:20;100994.66;;;0.35;91.46
4576;BME280;2300;51.874;8.430;2024-01-07T03:59:46;100994.13;;;0.05;91.33
4576;BME280;2300;51.874;8.430;2024-01-07T04:02:13;101005.28;;;0.10;91.55
4576;BME280;2300;51.874;8.430;2024-01-07T04:04:41;101001.88;;;0.08;91.51
4576;BME280;2300;51.874;8.430;2024-01-07T04:07:09;101014.81;;;0.23;91.53
4576;BME280;2300;51.874;8.430;2024-01-07T04:09:36;101025.16;;;0.27;91.30
4576;BME280;2300;51.874;8.430;2024-01-07T04:12:03;101021.53;;;0.18;91.61
4576;BME280;2300;51.874;8.430;2024-01-07T04:14:30;101026.00;;;0.28;91.39
4576;BME280;2300;51.874;8.430;2024-01-07T04:16:59;101028.03;;;0.26;90.82
4576;BME280;2300;51.874;8.430;2024-01-07T04:19:25;101030.34;;;0.20;91.26
4576;BME280;2300;51.874;8.430;2024-01-07T04:21:52;101033.84;;;0.39;90.82
4576;BME280;2300;51.874;8.430;2024-01-07T04:24:19;101032.22;;;0.20;91.22
4576;BME280;2300;51.874;8.430;2024-01-07T04:26:46;101039.13;;;0.23;91.05
4576;BME280;2300;51.874;8.430;2024-01-07T04:29:12;101041.31;;;0.19;91.05
4576;BME280;2300;51.874;8.430;2024-01-07T04:31:39;101039.13;;;0.23;91.11
4576;BME280;2300;51.874;8.430;2024-01-07T04:34:05;101043.78;;;0.12;91.04
4576;BME280;2300;51.874;8.430;2024-01-07T04:36:32;101043.47;;;0.15;90.65
4576;BME280;2300;51.874;8.430;2024-01-07T04:38:58;101039.69;;;0.08;90.22
4576;BME280;2300;51.874;8.430;2024-01-07T04:41:26;101043.78;;;0.12;89.89
4576;BME280;2300;51.874;8.430;2024-01-07T04:43:52;101045.44;;;0.05;89.57
4576;BME280;2300;51.874;8.430;2024-01-07T04:46:18;101040.47;;;0.01;90.32
4576;BME280;2300;51.874;8.430;2024-01-07T04:48:45;101052.81;;;0.03;90.47
4576;BME280;2300;51.874;8.430;2024-01-07T04:51:12;101048.75;;;-0.01;90.93
4576;BME280;2300;51.874;8.430;2024-01-07T04:53:38;101048.41;;;0.02;90.58
4576;BME280;2300;51.874;8.430;2024-01-07T04:56:05;101048.28;;;0.04;91.26
4576;BME280;2300;51.874;8.430;2024-01-07T04:58:33;101053.06;;;-0.08;90.79
4576;BME280;2300;51.874;8.430;2024-01-07T05:01:00;101067.72;;;0.07;91.07
4576;BME280;2300;51.874;8.430;2024-01-07T05:03:26;101058.00;;;-0.03;90.34
4576;BME280;2300;51.874;8.430;2024-01-07T05:05:53;101065.81;;;-0.00;90.21
4576;BME280;2300;51.874;8.430;2024-01-07T05:08:20;101070.41;;;0.07;91.17
4576;BME280;2300;51.874;8.430;2024-01-07T05:10:46;101061.22;;;0.00;91.10
4576;BME280;2300;51.874;8.430;2024-01-07T05:13:13;101077.28;;;0.02;91.83
4576;BME280;2300;51.874;8.430;2024-01-07T05:15:41;101082.00;;;-0.18;91.85
4576;BME280;2300;51.874;8.430;2024-01-07T05:18:07;101078.50;;;-0.28;93.12
4576;BME280;2300;51.874;8.430;2024-01-07T05:20:34;101074.03;;;-0.37;93.93
4576;BME280;2300;51.874;8.430;2024-01-07T05:23:01;101085.66;;;-0.54;94.84
4576;BME280;2300;51.874;8.430;2024-01-07T05:25:28;101097.63;;;-0.67;96.10
4576;BME280;2300;51.874;8.430;2024-01-07T05:27:54;101096.09;;;-0.69;97.04
4576;BME280;2300;51.874;8.430;2024-01-07T05:30:21;101097.84;;;-0.78;97.02
4576;BME280;2300;51.874;8.430;2024-01-07T05:32:49;101103.72;;;-0.92;97.68
4576;BME280;2300;51.874;8.430;2024-01-07T05:35:16;101104.50;;;-1.09;97.51
4576;BME280;2300;51.874;8.430;2024-01-07T05:37:42;101106.91;;;-1.06;98.26
4576;BME280;2300;51.874;8.430;2024-01-07T05:40:10;101106.59;;;-1.03;98.48
4576;BME280;2300;51.874;8.430;2024-01-07T05:42:36;101121.28;;;-1.15;98.82
4576;BME280;2300;51.874;8.430;2024-01-07T05:45:03;101121.09;;;-1.04;99.62
4576;BME280;2300;51.874;8.430;2024-01-07T05:47:30;101120.78;;;-1.01;99.09
4576;BME280;2300;51.874;8.430;2024-01-07T05:49:58;101119.91;;;-0.92;98.66
4576;BME280;2300;51.874;8.430;2024-01-07T05:52:24;101116.78;;;-0.97;97.92
4576;BME280;2300;51.874;8.430;2024-01-07T05:54:51;101135.09;;;-0.91;97.35
4576;BME280;2300;51.874;8.430;2024-01-07T05:57:18;101137.06;;;-0.83;96.54
4576;BME280;2300;51.874;8.430;2024-01-07T05:59:45;101142.03;;;-0.88;95.63
4576;BME280;2300;51.874;8.430;2024-01-07T06:02:11;101144.97;;;-0.82;95.14
4576;BME280;2300;51.874;8.430;2024-01-07T06:04:38;101147.28;;;-0.87;94.12
4576;BME280;2300;51.874;8.430;2024-01-07T06:07:06;101156.31;;;-0.69;94.01
4576;BME280;2300;51.874;8.430;2024-01-07T06:09:33;101156.56;;;-0.72;93.62
4576;BME280;2300;51.874;8.430;2024-01-07T06:12:00;101166.56;;;-0.82;92.98
4576;BME280;2300;51.874;8.430;2024-01-07T06:14:26;101165.75;;;-0.92;92.13
4576;BME280;2300;51.874;8.430;2024-01-07T06:16:53;101174.81;;;-0.93;91.79
4576;BME280;2300;51.874;8.430;2024-01-07T06:19:20;101170.03;;;-0.99;91.61
4576;BME280;2300;51.874;8.430;2024-01-07T06:21:47;101172.31;;;-1.04;91.11
4576;BME280;2300;51.874;8.430;2024-01-07T06:24:15;101178.56;;;-1.03;90.92
4576;BME280;2300;51.874;8.430;2024-01-07T06:26:41;101195.97;;;-0.98;90.66
4576;BME280;2300;51.874;8.430;2024-01-07T06:29:08;101195.56;;;-1.03;90.89
4576;BME280;2300;51.874;8.430;2024-01-07T06:31:35;101199.28;;;-1.04;90.20
4576;BME280;2300;51.874;8.430;2024-01-07T06:34:01;101200.84;;;-1.11;90.14
4576;BME280;2300;51.874;8.430;2024-01-07T06:36:28;101215.19;;;-1.11;90.01
4576;BME280;2300;51.874;8.430;2024-01-07T06:38:54;101220.72;;;-1.12;89.89
4576;BME280;2300;51.874;8.430;2024-01-07T06:41:22;101221.88;;;-1.15;89.33
4576;BME280;2300;51.874;8.430;2024-01-07T06:43:49;101232.19;;;-1.00;89.60
4576;BME280;2300;51.874;8.430;2024-01-07T06:46:17;101235.44;;;-0.97;89.59
4576;BME280;2300;51.874;8.430;2024-01-07T06:48:44;101242.69;;;-1.07;89.38
4576;BME280;2300;51.874;8.430;2024-01-07T06:51:10;101252.06;;;-1.01;89.08
4576;BME280;2300;51.874;8.430;2024-01-07T06:53:37;101247.94;;;-1.05;88.74
4576;BME280;2300;51.874;8.430;2024-01-07T06:56:04;101248.66;;;-1.13;88.59
4576;BME280;2300;51.874;8.430;2024-01-07T06:58:32;101251.09;;;-1.10;88.52
4576;BME280;2300;51.874;8.430;2024-01-07T07:00:58;101251.19;;;-1.02;88.64
4576;BME280;2300;51.874;8.430;2024-01-07T07:03:25;101259.03;;;-0.99;88.02
4576;BME280;2300;51.874;8.430;2024-01-07T07:05:52;101268.66;;;-1.06;87.70
4576;BME280;2300;51.874;8.430;2024-01-07T07:08:18;101269.66;;;-1.07;88.04
4576;BME280;2300;51.874;8.430;2024-01-07T07:10:44;101260.03;;;-1.10;87.32
4576;BME280;2300;51.874;8.430;2024-01-07T07:13:11;101275.06;;;-1.07;87.14
4576;BME280;2300;51.874;8.430;2024-01-07T07:15:39;101272.22;;;-1.15;86.69
4576;BME280;2300;51.874;8.430;2024-01-07T07:18:06;101285.28;;;-1.20;87.09
4576;BME280;2300;51.874;8.430;2024-01-07T07:20:33;101279.59;;;-1.17;86.60
4576;BME280;2300;51.874;8.430;2024-01-07T07:22:59;101278.06;;;-1.20;86.10
4576;BME280;2300;51.874;8.430;2024-01-07T07:25:26;101299.75;;;-1.21;86.17
4576;BME280;2300;51.874;8.430;2024-01-07T07:27:52;101307.97;;;-1.13;85.55
4576;BME280;2300;51.874;8.430;2024-01-07T07:30:20;101304.00;;;-1.09;85.36
4576;BME280;2300;51.874;8.430;2024-01-07T07:32:48;101317.34;;;-1.17;85.15
4576;BME280;2300;51.874;8.430;2024-01-07T07:35:15;101322.47;;;-1.14;85.08
4576;BME280;2300;51.874;8.430;2024-01-07T07:37:41;101326.16;;;-1.15;84.60
4576;BME280;2300;51.874;8.430;2024-01-07T07:40:09;101323.03;;;-1.20;84.47
4576;BME280;2300;51.874;8.430;2024-01-07T07:42:38;101328.41;;;-1.30;84.15
4576;BME280;2300;51.874;8.430;2024-01-07T07:45:06;101342.31;;;-1.25;83.94
4576;BME280;2300;51.874;8.430;2024-01-07T07:47:32;101334.06;;;-1.23;83.90
4576;BME280;2300;51.874;8.430;2024-01-07T07:50:00;101346.56;;;-1.22;83.64
4576;BME280;2300;51.874;8.430;2024-01-07T07:52:27;101346.56;;;-1.22;83.80
4576;BME280;2300;51.874;8.430;2024-01-07T07:54:54;101351.69;;;-1.19;84.17
4576;BME280;2300;51.874;8.430;2024-01-07T07:57:21;101361.03;;;-1.14;83.77
4576;BME280;2300;51.874;8.430;2024-01-07T07:59:47;101361.56;;;-1.29;83.01
4576;BME280;2300;51.874;8.430;2024-01-07T08:02:14;101370.94;;;-1.24;83.35
4576;BME280;2300;51.874;8.430;2024-01-07T08:04:41;101377.91;;;-1.21;83.20
4576;BME280;2300;51.874;8.430;2024-01-07T08:07:09;101381.78;;;-1.14;83.66
4576;BME280;2300;51.874;8.430;2024-01-07T08:09:36;101380.88;;;-1.34;82.40
4576;BME280;2300;51.874;8.430;2024-01-07T08:12:03;101378.03;;;-1.32;82.26
4576;BME280;2300;51.874;8.430;2024-01-07T08:14:31;101387.72;;;-1.30;81.96
4576;BME280;2300;51.874;8.430;2024-01-07T08:16:58;101388.81;;;-1.32;81.79
4576;BME280;2300;51.874;8.430;2024-01-07T08:19:24;101385.97;;;-1.40;82.09
4576;BME280;2300;51.874;8.430;2024-01-07T08:21:51;101393.47;;;-1.34;81.92
4576;BME280;2300;51.874;8.430;2024-01-07T08:24:19;101399.06;;;-1.26;82.17
4576;BME280;2300;51.874;8.430;2024-01-07T08:26:45;101404.44;;;-1.26;81.81
4576;BME280;2300;51.874;8.430;2024-01-07T08:29:12;101409.28;;;-1.30;82.02
4576;BME280;2300;51.874;8.430;2024-01-07T08:31:39;101387.66;;;-1.39;82.13
4576;BME280;2300;51.874;8.430;2024-01-07T08:34:07;101422.59;;;-1.28;82.09
4576;BME280;2300;51.874;8.430;2024-01-07T08:36:34;101430.09;;;-1.32;81.04
4576;BME280;2300;51.874;8.430;2024-01-07T08:39:00;101425.81;;;-1.34;80.75
4576;BME280;2300;51.874;8.430;2024-01-07T08:41:28;101444.16;;;-1.28;81.46
4576;BME280;2300;51.874;8.430;2024-01-07T08:43:55;101453.09;;;-1.18;81.25
4576;BME280;2300;51.874;8.430;2024-01-07T08:46:21;101463.19;;;-1.20;80.29
4576;BME280;2300;51.874;8.430;2024-01-07T08:48:48;101439.47;;;-1.26;79.99
4576;BME280;2300;51.874;8.430;2024-01-07T08:51:15;101465.16;;;-1.22;79.66
4576;BME280;2300;51.874;8.430;2024-01-07T08:53:41;101461.47;;;-1.21;78.82
4576;BME280;2300;51.874;8.430;2024-01-07T08:56:08;101460.94;;;-1.15;78.69
4576;BME280;2300;51.874;8.430;2024-01-07T08:58:36;101458.78;;;-1.31;78.08
4576;BME280;2300;51.874;8.430;2024-01-07T09:01:03;101463.44;;;-1.23;78.79
4576;BME280;2300;51.874;8.430;2024-01-07T09:03:30;101476.13;;;-1.14;78.81
4576;BME280;2300;51.874;8.430;2024-01-07T09:05:56;101479.38;;;-1.20;78.61
4576;BME280;2300;51.874;8.430;2024-01-07T09:08:23;101487.59;;;-1.12;77.42
4576;BME280;2300;51.874;8.430;2024-01-07T09:10:50;101486.06;;;-1.15;77.03
4576;BME280;2300;51.874;8.430;2024-01-07T09:13:16;101501.09;;;-1.12;77.15
4576;BME280;2300;51.874;8.430;2024-01-07T09:15:45;101507.47;;;-1.13;77.22
4576;BME280;2300;51.874;8.430;2024-01-07T09:18:11;101493.94;;;-1.32;75.93
4576;BME280;2300;51.874;8.430;2024-01-07T09:20:38;101495.41;;;-1.49;75.71
4576;BME280;2300;51.874;8.430;2024-01-07T09:23:04;101496.91;;;-1.35;76.07
4576;BME280;2300;51.874;8.430;2024-01-07T09:25:31;101503.28;;;-1.36;76.16
4576;BME280;2300;51.874;8.430;2024-01-07T09:27:58;101515.78;;;-1.35;75.65
4576;BME280;2300;51.874;8.430;2024-01-07T09:30:24;101517.28;;;-1.42;76.14
4576;BME280;2300;51.874;8.430;2024-01-07T09:32:52;101522.81;;;-1.44;75.72
4576;BME280;2300;51.874;8.430;2024-01-07T09:35:19;101525.06;;;-1.49;75.58
4576;BME280;2300;51.874;8.430;2024-01-07T09:37:45;101518.13;;;-1.52;75.39
4576;BME280;2300;51.874;8.430;2024-01-07T09:40:16;101523.31;;;-1.60;75.15
4576;BME280;2300;51.874;8.430;2024-01-07T09:42:43;101527.59;;;-1.57;74.64
4576;BME280;2300;51.874;8.430;2024-01-07T09:45:12;101525.47;;;-1.54;75.50
4576;BME280;2300;51.874;8.430;2024-01-07T09:47:39;101487.84;;;-1.65;74.68
4576;BME280;2300;51.874;8.430;2024-01-07T09:50:08;101525.91;;;-1.48;74.54
4576;BME280;2300;51.874;8.430;2024-01-07T09:52:37;101534.28;;;-1.52;74.07
4576;BME280;2300;51.874;8.430;2024-01-07T09:55:08;101536.00;;;-1.51;74.58
4576;BME280;2300;51.874;8.430;2024-01-07T09:57:37;101537.97;;;-1.53;74.80
4576;BME280;2300;51.874;8.430;2024-01-07T10:00:07;101540.56;;;-1.41;74.18
4576;BME280;2300;51.874;8.430;2024-01-07T10:02:35;101558.63;;;-1.32;74.15
4576;BME280;2300;51.874;8.430;2024-01-07T10:05:01;101554.75;;;-1.39;74.72
4576;BME280;2300;51.874;8.430;2024-01-07T10:07:30;101549.22;;;-1.38;74.36
4576;BME280;2300;51.874;8.430;2024-01-07T10:09:56;101555.75;;;-1.40;74.12
4576;BME280;2300;51.874;8.430;2024-01-07T10:12:23;101553.31;;;-1.43;74.04
4576;BME280;2300;51.874;8.430;2024-01-07T10:14:49;101559.03;;;-1.37;73.94
4576;BME280;2300;51.874;8.430;2024-01-07T10:17:16;101569.75;;;-1.46;73.42
4576;BME280;2300;51.874;8.430;2024-01-07T10:19:44;101576.09;;;-1.27;73.30
4576;BME280;2300;51.874;8.430;2024-01-07T10:22:12;101582.16;;;-1.04;73.63
4576;BME280;2300;51.874;8.430;2024-01-07T10:24:41;101586.41;;;-1.01;73.11
4576;BME280;2300;51.874;8.430;2024-01-07T10:27:08;101579.03;;;-1.09;72.40
4576;BME280;2300;51.874;8.430;2024-01-07T10:29:35;101593.56;;;-0.91;72.31
4576;BME280;2300;51.874;8.430;2024-01-07T10:32:03;101587.00;;;-0.98;71.80
4576;BME280;2300;51.874;8.430;2024-01-07T10:34:31;101593.19;;;-1.07;71.83
4576;BME280;2300;51.874;8.430;2024-01-07T10:36:59;101593.97;;;-1.26;72.02
4576;BME280;2300;51.874;8.430;2024-01-07T10:39:25;101592.06;;;-1.14;71.42
4576;BME280;2300;51.874;8.430;2024-01-07T10:41:54;101601.13;;;-1.15;72.36
4576;BME280;2300;51.874;8.430;2024-01-07T10:44:24;101589.56;;;-1.27;72.29
4576;BME280;2300;51.874;8.430;2024-01-07T10:46:53;101586.59;;;-1.24;72.79
4576;BME280;2300;51.874;8.430;2024-01-07T10:49:21;101589.44;;;-1.25;73.53
4576;BME280;2300;51.874;8.430;2024-01-07T10:52:02;101595.13;;;-1.19;73.47
4576;BME280;2300;51.874;8.430;2024-01-07T10:54:30;101590.34;;;-1.15;72.77
4576;BME280;2300;51.874;8.430;2024-01-07T10:57:04;101585.50;;;-1.21;73.93
4576;BME280;2300;51.874;8.430;2024-01-07T10:59:33;101586.53;;;-1.03;73.44
4576;BME280;2300;51.874;8.430;2024-01-07T11:02:01;101593.94;;;-1.05;73.43
4576;BME280;2300;51.874;8.430;2024-01-07T11:04:41;101597.56;;;-1.16;73.11
4576;BME280;2300;51.874;8.430;2024-01-07T11:07:19;101598.59;;;-1.07;72.81
4576;BME280;2300;51.874;8.430;2024-01-07T11:09:55;101592.84;;;-1.23;73.04
4576;BME280;2300;51.874;8.430;2024-01-07T11:12:24;101584.31;;;-1.28;73.27
4576;BME280;2300;51.874;8.430;2024-01-07T11:14:51;101596.94;;;-1.29;73.15
4576;BME280;2300;51.874;8.430;2024-01-07T11:17:39;101596.75;;;-1.37;73.13
4576;BME280;2300;51.874;8.430;2024-01-07T11:20:07;101600.47;;;-1.28;73.83
4576;BME280;2300;51.874;8.430;2024-01-07T11:22:39;101606.78;;;-1.18;73.32
4576;BME280;2300;51.874;8.430;2024-01-07T11:25:27;101602.63;;;-1.22;73.47
4576;BME280;2300;51.874;8.430;2024-01-07T11:27:57;101597.44;;;-1.14;73.07
4576;BME280;2300;51.874;8.430;2024-01-07T11:30:24;101598.59;;;-1.07;72.21
4576;BME280;2300;51.874;8.430;2024-01-07T11:32:58;101600.41;;;-1.17;71.58
4576;BME280;2300;51.874;8.430;2024-01-07T11:35:53;101613.19;;;-1.19;72.05
4576;BME280;2300;51.874;8.430;2024-01-07T11:38:21;101611.91;;;-1.15;72.13
4576;BME280;2300;51.874;8.430;2024-01-07T11:40:48;101616.28;;;-0.93;71.57
4576;BME280;2300;51.874;8.430;2024-01-07T11:43:17;101611.16;;;-0.87;71.50
4576;BME280;2300;51.874;8.430;2024-01-07T11:45:44;101615.69;;;-0.87;71.23
4576;BME280;2300;51.874;8.430;2024-01-07T11:48:10;101618.72;;;-0.81;71.54
4576;BME280;2300;51.874;8.430;2024-01-07T11:50:37;101606.31;;;-0.93;70.37
4576;BME280;2300;51.874;8.430;2024-01-07T11:53:04;101605.31;;;-0.92;70.88
4576;BME280;2300;51.874;8.430;2024-01-07T11:55:32;101607.22;;;-0.83;71.52
4576;BME280;2300;51.874;8.430;2024-01-07T11:58:00;101600.38;;;-0.87;71.39
4576;BME280;2300;51.874;8.430;2024-01-07T12:00:30;101612.03;;;-0.77;71.38
4576;BME280;2300;51.874;8.430;2024-01-07T12:02:57;101600.91;;;-0.62;71.89
4576;BME280;2300;51.874;8.430;2024-01-07T12:05:24;101612.16;;;-0.38;72.03
4576;BME280;2300;51.874;8.430;2024-01-07T12:07:50;101618.28;;;-0.36;71.24
4576;BME280;2300;51.874;8.430;2024-01-07T12:10:17;101615.16;;;-0.41;70.47
4576;BME280;2300;51.874;8.430;2024-01-07T12:12:43;101621.75;;;-0.65;71.05
4576;BME280;2300;51.874;8.430;2024-01-07T12:15:10;101615.09;;;-0.60;71.41
4576;BME280;2300;51.874;8.430;2024-01-07T12:17:39;101614.53;;;-0.54;71.54
4576;BME280;2300;51.874;8.430;2024-01-07T12:20:07;101614.53;;;-0.54;71.52
4576;BME280;2300;51.874;8.430;2024-01-07T12:22:37;101613.09;;;-0.68;72.24
4576;BME280;2300;51.874;8.430;2024-01-07T12:25:06;101607.09;;;-0.72;71.87
4576;BME280;2300;51.874;8.430;2024-01-07T12:27:33;101617.47;;;-0.67;72.28
4576;BME280;2300;51.874;8.430;2024-01-07T12:30:01;101618.50;;;-0.58;71.66
4576;BME280;2300;51.874;8.430;2024-01-07T12:32:28;101621.06;;;-0.57;71.96
4576;BME280;2300;51.874;8.430;2024-01-07T12:34:58;101625.72;;;-0.69;72.36
4576;BME280;2300;51.874;8.430;2024-01-07T12:37:26;101633.09;;;-0.71;72.80
4576;BME280;2300;51.874;8.430;2024-01-07T12:39:52;101633.38;;;-0.74;72.58
4576;BME280;2300;51.874;8.430;2024-01-07T12:42:19;101630.00;;;-0.56;72.45
4576;BME280;2300;51.874;8.430;2024-01-07T12:44:47;101630.19;;;-0.48;73.41
4576;BME280;2300;51.874;8.430;2024-01-07T12:47:14;101627.44;;;-0.68;73.00
4576;BME280;2300;51.874;8.430;2024-01-07T12:49:40;101629.19;;;-0.57;73.22
4576;BME280;2300;51.874;8.430;2024-01-07T12:52:08;101628.59;;;-0.51;72.82
4576;BME280;2300;51.874;8.430;2024-01-07T12:54:35;101643.25;;;-0.44;72.73
4576;BME280;2300;51.874;8.430;2024-01-07T12:57:02;101644.41;;;-0.37;73.13
4576;BME280;2300;51.874;8.430;2024-01-07T12:59:28;101647.25;;;-0.38;72.59
4576;BME280;2300;51.874;8.430;2024-01-07T13:01:55;101638.69;;;-0.53;72.91
4576;BME280;2300;51.874;8.430;2024-01-07T13:04:22;101644.63;;;-0.59;72.26
4576;BME280;2300;51.874;8.430;2024-01-07T13:06:48;101642.78;;;-0.58;72.27
4576;BME280;2300;51.874;8.430;2024-01-07T13:09:16;101643.63;;;-0.68;72.00
4576;BME280;2300;51.874;8.430;2024-01-07T13:11:43;101655.16;;;-0.46;72.91
4576;BME280;2300;51.874;8.430;2024-01-07T13:14:09;101651.34;;;-0.53;73.30
4576;BME280;2300;51.874;8.430;2024-01-07T13:16:36;101650.06;;;-0.49;73.61